Terminal Aerodrome Forecast
Issued by NWS Charleston, SC

Home | Current Version | Previous Version | Text Only | Print | Product List | Glossary On
Versions: 1 2 3 4 5 6 7 8 9 10 11 12 13 14
000
FTUS42 KCHS 051120
TAFCHS
TAF
KCHS 051120Z 0512/0612 03009KT P6SM FEW030
     FM051500 06011KT P6SM VCSH SCT035
     FM052000 08010KT P6SM SCT040
     FM060200 03005KT P6SM FEW040=

USA.gov is the U.S. government's official web portal to all federal, state and local government web resources and services.